Time;durP1;ratioP1;P1;durP2;ratioP2;P2;SDS_P1;SDS_P2;PMS_P1;PMS_P2;Temp;Humidity;BMP_temperature;BMP_pressure;BME280_temperature;BME280_humidity;BME280_pressure;Samples;Min_cycle;Max_cycle;Signal;HPM_P1;HPM_P2
2022/02/21 00:00:22;;;;;;;0.55;0.30;;;;;;;11.83;41.97;94563.00;5049886;28;20021;-71
2022/02/21 00:02:50;;;;;;;0.43;0.20;;;;;;;11.22;43.02;94570.56;5050443;28;20033;-71
2022/02/21 00:05:17;;;;;;;0.57;0.40;;;;;;;11.78;42.79;94562.41;5053129;28;20036;-71
2022/02/21 00:07:44;;;;;;;0.30;0.20;;;;;;;11.53;42.83;94548.16;5054087;28;20178;-71
2022/02/21 00:10:11;;;;;;;0.70;0.30;;;;;;;11.84;42.62;94553.91;5035855;28;20021;-70
2022/02/21 00:12:37;;;;;;;0.20;0.20;;;;;;;11.58;42.98;94551.41;5053817;28;20079;-71
2022/02/21 00:15:03;;;;;;;0.30;0.20;;;;;;;11.42;43.08;94535.22;5054025;28;20074;-71
2022/02/21 00:17:29;;;;;;;2.40;0.50;;;;;;;11.81;42.62;94549.19;5053770;28;20055;-71
2022/02/21 00:20:00;;;;;;;0.30;0.22;;;;;;;11.93;41.94;94498.66;5035654;28;20033;-72
2022/02/21 00:22:26;;;;;;;0.93;0.40;;;;;;;12.30;41.34;94500.66;5053531;28;20097;-72
2022/02/21 00:24:54;;;;;;;0.88;0.20;;;;;;;12.10;41.35;94494.25;5053810;28;20024;-72
2022/02/21 00:27:20;;;;;;;0.22;0.15;;;;;;;11.88;42.63;94508.72;5035974;28;20636;-71
2022/02/21 00:29:47;;;;;;;0.60;0.20;;;;;;;11.81;42.37;94455.91;5053366;28;20627;-72
2022/02/21 00:32:12;;;;;;;1.00;0.20;;;;;;;11.94;42.74;94494.88;5035209;28;20029;-71
2022/02/21 00:34:38;;;;;;;0.95;0.22;;;;;;;11.33;44.00;94483.91;5035121;28;20033;-71
2022/02/21 00:37:03;;;;;;;0.52;0.20;;;;;;;11.83;42.46;94488.41;5053258;28;20036;-72
2022/02/21 00:39:29;;;;;;;0.40;0.17;;;;;;;11.18;43.26;94468.50;5053139;28;20028;-71
2022/02/21 00:41:54;;;;;;;0.73;0.20;;;;;;;11.23;43.69;94494.91;5053438;28;20044;-71
2022/02/21 00:44:20;;;;;;;0.52;0.30;;;;;;;10.61;44.15;94394.50;5035388;28;20431;-72
2022/02/21 00:46:45;;;;;;;0.52;0.17;;;;;;;11.44;43.02;94474.41;5053200;28;20036;-71
2022/02/21 00:49:11;;;;;;;1.13;0.30;;;;;;;11.55;43.07;94471.34;5052822;28;20017;-71
2022/02/21 00:51:36;;;;;;;0.70;0.30;;;;;;;11.99;42.27;94472.56;5035147;28;20021;-71
2022/02/21 00:54:01;;;;;;;2.17;0.20;;;;;;;11.56;43.07;94454.25;5053357;28;20057;-72
2022/02/21 00:56:27;;;;;;;0.45;0.28;;;;;;;11.66;42.10;94451.97;5052868;28;20032;-71
2022/02/21 00:58:52;;;;;;;0.30;0.20;;;;;;;11.78;42.02;94431.84;5053096;28;20472;-71
2022/02/21 01:01:18;;;;;;;0.65;0.20;;;;;;;11.27;41.71;94362.72;5053209;28;20148;-75
2022/02/21 01:03:43;;;;;;;0.28;0.20;;;;;;;11.80;42.13;94441.03;5052707;28;20025;-72
2022/02/21 01:06:09;;;;;;;0.40;0.20;;;;;;;11.66;42.50;94417.34;5052928;28;20083;-72
2022/02/21 01:08:34;;;;;;;0.20;0.20;;;;;;;12.04;41.28;94405.72;5034861;28;20528;-72
2022/02/21 01:11:00;;;;;;;0.20;0.20;;;;;;;11.80;42.04;94397.63;5052645;28;20025;-72
2022/02/21 01:13:25;;;;;;;0.20;0.20;;;;;;;11.94;40.94;94409.59;5053271;28;20504;-72
2022/02/21 01:15:53;;;;;;;0.22;0.17;;;;;;;11.89;41.17;94403.69;5052939;28;20028;-71
2022/02/21 01:18:18;;;;;;;0.70;0.22;;;;;;;11.86;41.34;94402.44;5052949;28;20381;-72
2022/02/21 01:20:44;;;;;;;0.57;0.20;;;;;;;11.82;41.05;94380.22;5052319;28;20100;-72
2022/02/21 01:23:09;;;;;;;0.25;0.25;;;;;;;12.29;40.77;94414.53;5052882;28;20016;-72
2022/02/21 01:25:35;;;;;;;0.38;0.30;;;;;;;11.89;41.17;94385.81;5034813;28;20591;-71
2022/02/21 01:28:00;;;;;;;0.10;0.10;;;;;;;12.32;40.24;94381.84;5052622;28;20063;-72
2022/02/21 01:30:25;;;;;;;3.60;0.30;;;;;;;11.82;40.49;94390.13;5052083;28;20396;-71
2022/02/21 01:32:51;;;;;;;0.55;0.22;;;;;;;11.76;41.27;94380.75;5052360;28;20093;-72
2022/02/21 01:35:16;;;;;;;2.42;0.22;;;;;;;11.74;41.47;94391.75;5052289;28;20465;-72
2022/02/21 01:37:42;;;;;;;4.75;0.40;;;;;;;11.65;41.78;94369.72;5034426;28;20480;-72
2022/02/21 01:40:07;;;;;;;0.65;0.20;;;;;;;11.96;40.70;94375.38;5034457;28;20465;-72
2022/02/21 01:42:36;;;;;;;1.25;0.38;;;;;;;11.93;40.99;94360.06;5034264;28;20511;-72
2022/02/21 01:45:02;;;;;;;1.45;0.40;;;;;;;12.31;39.69;94334.22;5052364;28;20029;-72
2022/02/21 01:47:28;;;;;;;0.90;0.60;;;;;;;11.79;41.08;94372.88;5034511;28;20028;-72
2022/02/21 01:49:53;;;;;;;0.77;0.22;;;;;;;11.57;41.86;94362.63;5051494;28;20024;-72
2022/02/21 01:52:19;;;;;;;0.93;0.32;;;;;;;11.65;41.60;94343.88;5051939;28;20064;-72
2022/02/21 01:54:45;;;;;;;1.45;0.60;;;;;;;11.85;40.64;94339.63;5052309;28;20540;-72
2022/02/21 01:57:12;;;;;;;1.58;0.40;;;;;;;11.59;41.47;94315.13;5052191;28;20024;-72
2022/02/21 01:59:38;;;;;;;0.68;0.28;;;;;;;11.44;41.94;94308.53;5051970;28;20047;-71
2022/02/21 02:02:05;;;;;;;0.95;0.30;;;;;;;11.69;41.42;94296.81;5034245;28;20431;-73
2022/02/21 02:04:31;;;;;;;3.05;0.35;;;;;;;12.16;40.73;94283.09;5051611;28;20092;-74
2022/02/21 02:06:57;;;;;;;1.55;0.40;;;;;;;11.86;40.73;94247.91;5051939;28;20112;-73
2022/02/21 02:09:23;;;;;;;1.73;0.43;;;;;;;12.45;39.76;94265.31;5033861;28;20056;-73
2022/02/21 02:11:49;;;;;;;2.25;0.50;;;;;;;12.16;39.90;94229.00;5051868;28;20475;-72
2022/02/21 02:14:28;;;;;;;0.90;0.35;;;;;;;11.88;40.19;94196.97;5034061;28;20025;-72
2022/02/21 02:16:54;;;;;;;1.98;0.40;;;;;;;11.98;40.13;94249.81;5051770;28;20070;-72
2022/02/21 02:19:19;;;;;;;1.05;0.30;;;;;;;11.92;40.47;94203.16;5032823;28;20024;-72
2022/02/21 02:21:48;;;;;;;3.15;0.38;;;;;;;12.18;39.63;94190.25;5051817;28;20111;-72
2022/02/21 02:24:13;;;;;;;2.50;0.43;;;;;;;11.77;39.76;94172.59;5034026;28;20025;-72
2022/02/21 02:26:40;;;;;;;0.73;0.38;;;;;;;12.37;38.77;94212.84;5033466;28;20029;-72
2022/02/21 02:29:06;;;;;;;0.30;0.20;;;;;;;11.66;40.52;94190.16;5050540;28;20025;-72
2022/02/21 02:31:31;;;;;;;2.95;0.40;;;;;;;12.19;39.55;94175.81;5033490;28;20028;-72
2022/02/21 02:33:56;;;;;;;0.60;0.30;;;;;;;12.45;38.84;94154.06;5050564;28;20029;-72
2022/02/21 02:36:22;;;;;;;0.65;0.30;;;;;;;12.06;39.28;94176.16;5033422;28;20489;-72
2022/02/21 02:38:47;;;;;;;1.02;0.20;;;;;;;12.12;38.81;94124.16;5051237;28;20017;-72
2022/02/21 02:41:12;;;;;;;1.30;0.20;;;;;;;12.03;39.46;94118.19;5033205;28;20155;-72
2022/02/21 02:43:39;;;;;;;0.20;0.20;;;;;;;12.26;38.85;94137.91;5051176;28;20491;-72
2022/02/21 02:46:06;;;;;;;0.73;0.30;;;;;;;12.40;38.69;94116.97;5033438;28;20032;-72
2022/02/21 02:48:32;;;;;;;1.40;0.75;;;;;;;12.53;38.35;94130.22;5050493;28;20064;-72
2022/02/21 02:50:58;;;;;;;1.05;0.38;;;;;;;12.80;37.93;94113.44;5050884;28;20040;-72
2022/02/21 02:53:23;;;;;;;2.22;0.57;;;;;;;12.16;38.41;94085.81;5051147;28;20029;-72
2022/02/21 02:55:48;;;;;;;0.73;0.40;;;;;;;12.48;38.27;94105.34;5033122;28;20078;-71
2022/02/21 02:58:14;;;;;;;1.25;0.40;;;;;;;12.88;37.42;94117.81;5050992;28;20405;-72
2022/02/21 03:00:39;;;;;;;2.10;0.40;;;;;;;12.73;37.67;94114.00;5050507;28;20067;-72
2022/02/21 03:03:05;;;;;;;1.00;0.30;;;;;;;12.67;37.35;94122.63;5033048;28;20060;-73
2022/02/21 03:05:31;;;;;;;1.83;0.50;;;;;;;12.47;37.45;94125.16;5032382;28;20061;-73
2022/02/21 03:07:56;;;;;;;0.82;0.20;;;;;;;12.41;37.80;94117.72;5032935;28;20071;-71
2022/02/21 03:10:21;;;;;;;0.95;0.30;;;;;;;12.59;37.91;94110.19;5050537;28;20021;-72
2022/02/21 03:12:47;;;;;;;1.38;0.40;;;;;;;12.72;37.27;94120.47;5049950;28;20118;-74
2022/02/21 03:15:13;;;;;;;0.47;0.38;;;;;;;12.64;37.84;94131.28;5032219;28;20470;-72
2022/02/21 03:17:38;;;;;;;1.52;0.30;;;;;;;12.05;38.00;94084.75;5032600;28;20072;-72
2022/02/21 03:20:04;;;;;;;0.40;0.22;;;;;;;13.01;36.96;94121.22;5032217;28;20032;-73
2022/02/21 03:22:30;;;;;;;3.35;0.40;;;;;;;12.54;37.39;94110.44;5050257;28;20103;-74
2022/02/21 03:24:56;;;;;;;10.88;0.73;;;;;;;12.41;37.92;94096.41;5050721;28;20082;-71
2022/02/21 03:27:22;;;;;;;0.85;0.35;;;;;;;12.88;37.00;94083.13;5050824;28;20385;-71
2022/02/21 03:29:47;;;;;;;0.50;0.20;;;;;;;12.75;37.20;94063.75;5032702;28;20029;-72
2022/02/21 03:32:13;;;;;;;1.00;0.40;;;;;;;12.37;37.21;94045.63;5051048;28;20033;-72
2022/02/21 03:34:38;;;;;;;1.23;0.28;;;;;;;12.27;37.23;94013.34;5033112;28;20091;-72
2022/02/21 03:37:04;;;;;;;1.20;0.52;;;;;;;13.08;36.42;94051.19;5033233;28;20025;-72
2022/02/21 03:39:29;;;;;;;0.38;0.10;;;;;;;12.78;37.54;94050.84;5052756;28;20021;-72
2022/02/21 03:41:55;;;;;;;1.30;0.22;;;;;;;12.45;37.76;94054.59;5055093;28;20036;-73
2022/02/21 03:44:20;;;;;;;1.23;0.30;;;;;;;12.37;37.93;94048.28;5037227;28;20024;-73
2022/02/21 03:46:46;;;;;;;2.72;0.50;;;;;;;12.51;37.93;94047.13;5054941;28;20029;-72
2022/02/21 03:49:11;;;;;;;0.15;0.15;;;;;;;12.37;38.50;94042.19;5054518;28;20025;-72
2022/02/21 03:51:41;;;;;;;1.48;0.40;;;;;;;12.96;37.37;94052.84;5054571;28;20025;-72
2022/02/21 03:54:07;;;;;;;1.35;0.50;;;;;;;12.70;37.94;94063.25;5054975;28;20052;-72
2022/02/21 03:56:33;;;;;;;1.50;0.17;;;;;;;12.65;38.18;94047.50;5054799;28;20024;-73
2022/02/21 03:58:59;;;;;;;1.00;0.20;;;;;;;12.98;36.89;94023.88;5054424;28;20025;-73
2022/02/21 04:01:24;;;;;;;0.25;0.22;;;;;;;12.69;38.31;94046.47;5054762;28;20021;-72
2022/02/21 04:03:49;;;;;;;1.35;0.43;;;;;;;12.17;38.88;94075.94;5036432;28;20025;-73
2022/02/21 04:06:15;;;;;;;2.30;0.30;;;;;;;12.66;38.55;94033.81;5054492;28;20040;-73
2022/02/21 04:08:41;;;;;;;0.82;0.20;;;;;;;12.92;38.34;94041.28;5054432;28;20024;-72
2022/02/21 04:11:06;;;;;;;0.82;0.40;;;;;;;12.81;38.03;94023.47;5054399;28;20025;-73
2022/02/21 04:13:32;;;;;;;1.65;0.30;;;;;;;12.88;37.92;94015.63;5054428;28;20113;-73
2022/02/21 04:15:58;;;;;;;0.52;0.20;;;;;;;12.86;38.24;94050.69;5036554;28;20700;-74
2022/02/21 04:18:24;;;;;;;0.35;0.17;;;;;;;12.30;39.52;94042.78;5036313;28;20024;-73
2022/02/21 04:20:49;;;;;;;1.25;0.20;;;;;;;12.05;40.64;94046.69;5053412;28;20013;-72
2022/02/21 04:23:14;;;;;;;0.98;0.25;;;;;;;12.19;40.44;94039.06;5053856;28;20508;-73
2022/02/21 04:25:40;;;;;;;1.35;0.20;;;;;;;12.14;40.77;94055.31;5053677;28;20037;-73
2022/02/21 04:28:05;;;;;;;0.50;0.30;;;;;;;12.00;41.02;94073.56;5053686;28;20044;-72
2022/02/21 04:30:31;;;;;;;0.93;0.30;;;;;;;12.13;41.35;94062.53;5053315;28;20025;-72
2022/02/21 04:32:56;;;;;;;1.42;0.20;;;;;;;11.73;42.28;94045.75;5035706;28;20029;-72
2022/02/21 04:35:24;;;;;;;3.60;0.20;;;;;;;11.42;43.06;94055.13;5053169;28;20454;-72
2022/02/21 04:37:49;;;;;;;1.40;0.40;;;;;;;12.03;42.80;94052.34;5035661;28;20029;-72
2022/02/21 04:40:18;;;;;;;0.10;0.10;;;;;;;11.59;43.10;94027.47;5035205;28;20385;-72
2022/02/21 04:42:43;;;;;;;0.63;0.40;;;;;;;11.59;43.46;94051.44;5035759;28;20091;-73
2022/02/21 04:45:09;;;;;;;0.30;0.25;;;;;;;11.85;42.98;94033.19;5053612;28;20505;-72
2022/02/21 04:47:35;;;;;;;0.32;0.10;;;;;;;11.25;43.98;94018.88;5053545;28;20029;-73
2022/02/21 04:50:01;;;;;;;0.38;0.32;;;;;;;11.84;42.73;93989.00;5051894;28;20107;-72
2022/02/21 04:52:27;;;;;;;0.70;0.40;;;;;;;11.61;43.76;94007.34;5052537;28;20083;-72
2022/02/21 04:54:52;;;;;;;0.30;0.20;;;;;;;11.84;42.87;93974.91;5053278;28;20092;-73
2022/02/21 04:57:17;;;;;;;0.70;0.28;;;;;;;11.50;43.78;93976.22;5053263;28;20083;-73
2022/02/21 04:59:43;;;;;;;0.10;0.10;;;;;;;11.22;45.09;93992.94;5052928;28;20055;-73
2022/02/21 05:02:08;;;;;;;0.17;0.17;;;;;;;11.11;44.69;94018.47;5052957;28;20078;-73
2022/02/21 05:04:34;;;;;;;1.67;0.38;;;;;;;11.51;44.35;94013.16;5052792;28;20039;-72
2022/02/21 05:06:59;;;;;;;0.15;0.15;;;;;;;11.76;43.86;94002.44;5034896;28;20020;-72
2022/02/21 05:09:25;;;;;;;0.30;0.20;;;;;;;11.68;43.55;93966.84;5034885;28;20377;-73
2022/02/21 05:11:50;;;;;;;0.35;0.20;;;;;;;11.15;45.25;93966.88;5034536;28;20437;-72
2022/02/21 05:14:16;;;;;;;0.85;0.22;;;;;;;10.93;45.21;93976.09;5052908;28;20052;-72
2022/02/21 05:16:41;;;;;;;0.60;0.30;;;;;;;11.23;44.90;93967.88;5052872;28;20461;-73
2022/02/21 05:19:06;;;;;;;0.65;0.25;;;;;;;11.19;45.50;93961.66;5034632;28;20033;-73
2022/02/21 05:21:32;;;;;;;0.55;0.30;;;;;;;11.59;45.31;93945.69;5052453;28;20059;-72
2022/02/21 05:23:59;;;;;;;1.40;0.30;;;;;;;11.14;46.21;93967.22;5052741;28;20021;-72
2022/02/21 05:26:25;;;;;;;3.70;0.40;;;;;;;10.90;46.34;93952.84;5034659;28;20055;-72
2022/02/21 05:28:52;;;;;;;0.82;0.32;;;;;;;10.73;47.22;93923.81;5052332;28;20025;-73
2022/02/21 05:31:18;;;;;;;0.70;0.30;;;;;;;10.92;46.85;93947.94;5034437;28;20035;-74
2022/02/21 05:33:43;;;;;;;0.77;0.10;;;;;;;11.15;46.38;93942.13;5034685;28;20027;-72
2022/02/21 05:36:09;;;;;;;1.00;0.10;;;;;;;10.66;47.16;93921.72;5033872;28;20024;-73
2022/02/21 05:38:34;;;;;;;0.40;0.10;;;;;;;10.87;47.41;93944.75;5052337;28;20060;-73
2022/02/21 05:40:59;;;;;;;0.43;0.15;;;;;;;10.73;46.90;93926.47;5052370;28;20575;-72
2022/02/21 05:43:25;;;;;;;0.10;0.10;;;;;;;10.89;47.06;93929.22;5052450;28;20067;-73
2022/02/21 05:45:50;;;;;;;0.38;0.30;;;;;;;10.59;47.61;93944.63;5052220;28;20029;-74
2022/02/21 05:48:16;;;;;;;0.10;0.10;;;;;;;10.44;48.20;93963.91;5034822;28;20029;-73
2022/02/21 05:50:41;;;;;;;0.45;0.10;;;;;;;11.09;46.61;93954.13;5051355;28;20523;-73
2022/02/21 05:53:06;;;;;;;0.63;0.20;;;;;;;11.07;46.70;93967.78;5052428;28;20575;-73
2022/02/21 05:55:32;;;;;;;0.55;0.50;;;;;;;11.71;45.24;93987.47;5034737;28;20021;-72
2022/02/21 05:57:59;;;;;;;0.03;0.03;;;;;;;10.92;48.00;94038.41;5052876;28;20033;-73
2022/02/21 06:00:25;;;;;;;0.30;0.30;;;;;;;10.93;49.48;94129.63;5051829;28;20079;-74
2022/02/21 06:02:50;;;;;;;2.03;0.10;;;;;;;8.27;56.29;94188.06;5051814;28;20056;-73
2022/02/21 06:05:16;;;;;;;2.50;0.10;;;;;;;5.14;63.91;94203.88;5052010;28;20056;-72
2022/02/21 06:07:41;;;;;;;1.13;0.10;;;;;;;3.91;68.55;94255.06;5033611;28;20502;-73
2022/02/21 06:10:07;;;;;;;0.20;0.20;;;;;;;3.51;72.56;94208.25;5051683;28;20025;-72
2022/02/21 06:12:32;;;;;;;0.08;0.00;;;;;;;2.42;76.00;94230.63;5033493;28;20025;-73
2022/02/21 06:14:58;;;;;;;0.20;0.17;;;;;;;2.81;84.62;94237.63;5051672;28;20032;-73
2022/02/21 06:17:24;;;;;;;1.75;0.20;;;;;;;2.81;87.29;94295.41;5051808;28;20075;-73
2022/02/21 06:19:50;;;;;;;0.93;0.20;;;;;;;1.92;79.08;94208.91;5050996;28;20458;-73
2022/02/21 06:22:15;;;;;;;3.28;0.38;;;;;;;3.16;77.25;94249.63;5051308;28;20123;-73
2022/02/21 06:24:40;;;;;;;0.32;0.30;;;;;;;2.66;77.58;94279.75;5051643;28;20029;-73
2022/02/21 06:27:06;;;;;;;6.32;0.50;;;;;;;2.59;77.45;94312.38;5033419;28;20052;-73
2022/02/21 06:29:31;;;;;;;4.35;1.27;;;;;;;3.18;77.28;94343.97;5033561;28;20025;-72
2022/02/21 06:31:56;;;;;;;1.45;0.63;;;;;;;2.70;79.08;94343.81;5051188;28;20063;-73
2022/02/21 06:34:22;;;;;;;0.68;0.57;;;;;;;2.28;77.58;94234.91;5050845;28;20052;-73
2022/02/21 06:36:48;;;;;;;4.60;0.70;;;;;;;2.86;77.17;94329.50;5050918;28;20032;-73
2022/02/21 06:39:15;;;;;;;2.88;0.43;;;;;;;2.24;76.55;94247.00;5050958;28;20033;-69
2022/02/21 06:41:40;;;;;;;2.70;0.65;;;;;;;3.05;75.83;94322.53;5051691;28;20021;-69
2022/02/21 06:44:06;;;;;;;3.67;1.27;;;;;;;3.42;74.66;94338.75;5033246;28;20443;-70
2022/02/21 06:46:31;;;;;;;3.28;0.82;;;;;;;2.98;75.03;94310.78;5050822;28;20453;-73
2022/02/21 06:48:57;;;;;;;1.52;0.70;;;;;;;4.00;75.28;94320.22;5050539;28;20036;-70
2022/02/21 06:51:22;;;;;;;2.28;0.63;;;;;;;4.10;73.51;94328.78;5046077;28;20036;-70
2022/02/21 06:53:48;;;;;;;0.63;0.45;;;;;;;4.04;73.12;94327.25;5050154;28;20078;-70
2022/02/21 06:56:13;;;;;;;1.00;0.38;;;;;;;3.86;72.30;94304.34;5050640;28;20029;-71
2022/02/21 06:58:38;;;;;;;2.80;0.85;;;;;;;3.80;71.59;94334.41;5050629;28;20021;-70
2022/02/21 07:01:04;;;;;;;5.18;1.27;;;;;;;4.04;70.57;94305.41;5032812;28;20025;-71
2022/02/21 07:03:29;;;;;;;2.65;0.80;;;;;;;3.51;72.10;94302.91;5050679;28;20444;-70
2022/02/21 07:05:54;;;;;;;1.55;0.73;;;;;;;3.86;71.85;94335.91;5049980;28;20032;-69
2022/02/21 07:08:20;;;;;;;0.75;0.75;;;;;;;3.69;71.84;94325.84;5050523;28;20103;-69
2022/02/21 07:10:46;;;;;;;2.15;1.02;;;;;;;3.61;71.91;94308.81;5050077;28;20029;-69
2022/02/21 07:13:11;;;;;;;3.30;0.75;;;;;;;4.13;70.69;94335.31;5050187;28;20048;-69
2022/02/21 07:15:37;;;;;;;4.18;1.25;;;;;;;4.14;70.43;94342.91;5050440;28;20053;-70
2022/02/21 07:18:02;;;;;;;4.60;1.27;;;;;;;3.97;71.94;94339.97;5051340;28;20043;-74
2022/02/21 07:20:28;;;;;;;6.95;1.30;;;;;;;4.37;69.23;94358.97;5031627;28;20024;-74
2022/02/21 07:22:53;;;;;;;2.80;1.08;;;;;;;4.64;68.36;94361.75;5050516;28;20090;-68
2022/02/21 07:25:18;;;;;;;2.53;0.90;;;;;;;4.36;69.82;94370.56;5050326;28;20044;-69
2022/02/21 07:27:49;;;;;;;4.25;0.90;;;;;;;4.09;69.61;94366.66;5050330;28;20056;-70
2022/02/21 07:30:16;;;;;;;2.65;1.00;;;;;;;3.92;69.74;94371.63;5032244;28;20029;-70
2022/02/21 07:32:42;;;;;;;2.13;1.30;;;;;;;4.71;68.45;94403.56;5031845;28;20032;-71
2022/02/21 07:35:09;;;;;;;7.57;1.23;;;;;;;4.89;66.68;94396.72;5049911;28;20101;-70
2022/02/21 07:37:34;;;;;;;3.00;1.00;;;;;;;4.13;69.20;94415.06;5032073;28;20390;-69
2022/02/21 07:39:59;;;;;;;1.50;0.70;;;;;;;4.62;68.82;94440.28;5049884;28;20090;-70
2022/02/21 07:42:25;;;;;;;2.75;1.00;;;;;;;4.57;68.05;94406.09;5032056;28;20075;-69
2022/02/21 07:44:52;;;;;;;3.28;1.05;;;;;;;4.80;67.23;94395.78;5031965;28;20024;-68
2022/02/21 07:47:18;;;;;;;12.10;1.60;;;;;;;5.72;65.51;94390.59;5032142;28;20035;-70
2022/02/21 07:49:43;;;;;;;2.67;1.08;;;;;;;5.63;63.19;94389.75;5049302;28;20024;-68
2022/02/21 07:52:09;;;;;;;2.40;1.00;;;;;;;6.22;62.85;94368.88;5031649;28;20025;-70
2022/02/21 07:54:34;;;;;;;5.40;1.60;;;;;;;5.50;64.00;94406.31;5049869;28;20052;-69
2022/02/21 07:57:01;;;;;;;2.75;1.00;;;;;;;5.34;64.51;94461.16;5032066;28;20071;-69
2022/02/21 07:59:27;;;;;;;3.58;1.20;;;;;;;6.03;62.05;94460.59;5049820;28;20495;-71
2022/02/21 08:01:53;;;;;;;5.55;1.08;;;;;;;5.47;62.58;94476.22;5050067;28;20021;-70
2022/02/21 08:04:19;;;;;;;6.35;1.40;;;;;;;5.44;62.13;94442.53;5049978;28;20351;-69
2022/02/21 08:06:46;;;;;;;5.03;1.42;;;;;;;6.36;61.99;94411.13;5049993;28;20021;-71
2022/02/21 08:09:12;;;;;;;3.95;1.42;;;;;;;6.16;60.77;94436.84;5050088;28;20477;-70
2022/02/21 08:11:38;;;;;;;2.63;1.02;;;;;;;6.05;60.58;94448.66;5049861;28;20040;-70
2022/02/21 08:14:03;;;;;;;4.72;1.00;;;;;;;5.71;61.33;94509.66;5050669;28;20021;-70
2022/02/21 08:16:29;;;;;;;4.32;0.95;;;;;;;5.79;61.43;94527.47;5050473;28;20028;-69
2022/02/21 08:18:55;;;;;;;9.20;1.23;;;;;;;5.87;61.58;94507.53;5050270;28;20021;-70
2022/02/21 08:21:21;;;;;;;6.47;1.60;;;;;;;6.34;60.76;94509.13;5049143;28;20029;-70
2022/02/21 08:23:46;;;;;;;3.88;1.60;;;;;;;6.01;60.34;94545.34;5049653;28;20029;-71
2022/02/21 08:26:11;;;;;;;5.72;1.30;;;;;;;6.18;61.49;94598.41;5052757;28;20029;-70
2022/02/21 08:28:37;;;;;;;6.57;1.58;;;;;;;5.93;61.43;94612.78;5053372;28;20492;-71
2022/02/21 08:31:02;;;;;;;3.72;0.90;;;;;;;6.16;59.58;94615.63;5053779;28;20029;-71
2022/02/21 08:33:28;;;;;;;4.43;1.50;;;;;;;6.66;58.73;94606.06;5035789;28;20032;-71
2022/02/21 08:35:53;;;;;;;3.70;0.77;;;;;;;7.01;57.98;94607.28;5035036;28;20032;-69
2022/02/21 08:38:18;;;;;;;2.53;0.80;;;;;;;6.08;57.80;94588.00;5035536;28;20033;-69
2022/02/21 08:40:44;;;;;;;5.43;1.05;;;;;;;6.91;58.04;94614.59;5053199;28;20512;-68
2022/02/21 08:43:09;;;;;;;1.75;0.90;;;;;;;6.60;57.63;94590.56;5035511;28;20021;-69
2022/02/21 08:45:35;;;;;;;1.80;0.90;;;;;;;6.76;58.77;94592.66;5053349;28;20021;-69
2022/02/21 08:48:00;;;;;;;3.28;0.82;;;;;;;7.23;56.39;94601.28;5053405;28;20029;-70
2022/02/21 08:50:26;;;;;;;5.75;1.05;;;;;;;7.71;56.06;94590.19;5034448;28;20028;-69
2022/02/21 08:52:51;;;;;;;2.40;0.65;;;;;;;6.70;56.78;94645.88;5052963;28;20028;-69
2022/02/21 08:55:17;;;;;;;1.50;0.70;;;;;;;7.22;56.84;94630.69;5066858;22;20056;-64
2022/02/21 08:57:44;;;;;;;3.97;1.10;;;;;;;7.75;55.63;94633.53;5053291;28;20049;-64
2022/02/21 09:00:11;;;;;;;2.67;0.82;;;;;;;6.54;56.72;94584.59;5051357;28;20074;-64
2022/02/21 09:02:37;;;;;;;1.95;0.65;;;;;;;6.67;57.26;94641.19;5051826;28;20489;-63
2022/02/21 09:05:03;;;;;;;1.55;0.55;;;;;;;6.27;55.63;94598.53;5051315;28;20428;-64
2022/02/21 09:07:29;;;;;;;2.63;1.00;;;;;;;7.08;56.76;94593.66;5052648;28;20033;-63
2022/02/21 09:09:54;;;;;;;4.18;0.80;;;;;;;7.31;54.87;94647.41;5052794;28;20135;-64
2022/02/21 09:12:20;;;;;;;1.98;0.82;;;;;;;6.13;56.50;94630.16;5052805;28;20035;-63
2022/02/21 09:14:50;;;;;;;2.72;0.73;;;;;;;7.44;55.58;94643.97;5053019;28;20435;-64
2022/02/21 09:17:16;;;;;;;0.57;0.50;;;;;;;6.73;56.02;94656.66;5052961;28;20422;-63
2022/02/21 09:19:43;;;;;;;1.95;0.75;;;;;;;6.20;55.69;94621.91;5051480;28;20056;-63
2022/02/21 09:22:08;;;;;;;1.23;0.47;;;;;;;6.82;54.45;94635.66;5051914;28;20029;-63
2022/02/21 09:24:34;;;;;;;4.10;0.95;;;;;;;6.42;55.11;94621.28;5051282;28;20032;-64
2022/02/21 09:26:59;;;;;;;2.75;1.00;;;;;;;7.11;54.45;94626.63;5052604;28;20112;-63
2022/02/21 09:29:24;;;;;;;1.63;0.70;;;;;;;8.21;53.71;94627.22;5052528;28;20102;-63
2022/02/21 09:31:52;;;;;;;2.65;0.98;;;;;;;7.98;53.39;94621.09;5052452;28;20044;-63
2022/02/21 09:34:18;;;;;;;3.30;0.70;;;;;;;8.39;51.69;94625.47;5050964;28;20031;-64
2022/02/21 09:36:43;;;;;;;1.30;0.80;;;;;;;7.73;52.80;94641.00;5049961;28;20025;-63
2022/02/21 09:39:09;;;;;;;4.18;0.80;;;;;;;7.55;53.53;94616.22;5050815;28;20029;-63
2022/02/21 09:41:34;;;;;;;2.03;0.52;;;;;;;6.21;57.13;94571.44;5052181;28;20505;-63
2022/02/21 09:43:59;;;;;;;5.57;1.00;;;;;;;6.49;56.13;94659.44;5052131;28;20017;-63
2022/02/21 09:46:29;;;;;;;3.67;1.10;;;;;;;6.73;54.25;94663.81;5052117;28;20033;-63
2022/02/21 09:48:57;;;;;;;5.50;1.00;;;;;;;7.16;54.30;94685.50;5051873;28;20065;-63
2022/02/21 09:51:22;;;;;;;2.88;0.82;;;;;;;6.86;51.83;94604.09;5049931;28;20456;-64
2022/02/21 09:53:49;;;;;;;2.30;0.52;;;;;;;7.12;53.35;94667.91;5050662;28;20021;-61
2022/02/21 09:56:14;;;;;;;3.97;0.80;;;;;;;7.42;53.11;94682.38;5051486;28;20116;-61
2022/02/21 09:58:40;;;;;;;6.20;1.13;;;;;;;7.27;52.98;94694.06;5050427;28;20021;-61
2022/02/21 10:01:06;;;;;;;5.82;1.00;;;;;;;7.38;51.93;94665.56;5050431;28;20072;-62
2022/02/21 10:03:38;;;;;;;5.28;0.95;;;;;;;7.07;54.93;94665.34;5050440;28;20029;-63
2022/02/21 10:06:15;;;;;;;3.75;1.08;;;;;;;7.25;51.19;94656.53;5051578;28;20484;-61
2022/02/21 10:09:03;;;;;;;2.75;0.55;;;;;;;6.82;53.28;94656.00;5050031;28;20025;-61
2022/02/21 10:11:31;;;;;;;4.97;1.25;;;;;;;7.11;51.73;94653.88;5051582;28;20414;-63
2022/02/21 10:14:00;;;;;;;3.47;0.75;;;;;;;7.41;51.92;94649.06;5051614;28;20041;-64
2022/02/21 10:16:37;;;;;;;3.60;1.02;;;;;;;8.16;51.45;94632.63;5051545;28;20555;-62
2022/02/21 10:19:22;;;;;;;4.47;1.10;;;;;;;9.02;50.79;94647.53;5051326;28;20025;-63
2022/02/21 10:22:06;;;;;;;5.03;1.33;;;;;;;7.43;51.17;94631.06;5050777;28;20016;-62
2022/02/21 10:24:58;;;;;;;5.07;0.80;;;;;;;7.21;51.00;94645.75;5051222;28;20513;-64
2022/02/21 10:27:29;;;;;;;4.28;0.50;;;;;;;7.37;50.34;94617.16;5050218;28;20125;-66
2022/02/21 10:30:05;;;;;;;2.13;0.70;;;;;;;7.86;49.40;94614.78;5049517;28;20057;-66
2022/02/21 10:32:42;;;;;;;2.53;0.75;;;;;;;7.21;49.91;94603.41;5051440;28;20025;-66
2022/02/21 10:35:10;;;;;;;4.35;1.35;;;;;;;7.82;51.10;94625.97;5051246;28;20028;-64
2022/02/21 10:37:44;;;;;;;6.82;1.20;;;;;;;7.11;50.74;94602.84;5049370;28;20118;-64
2022/02/21 10:40:18;;;;;;;6.80;1.55;;;;;;;7.89;49.17;94585.84;5050683;28;20029;-63
2022/02/21 10:43:00;;;;;;;2.88;0.60;;;;;;;8.33;46.77;94621.38;5050141;28;20591;-64
2022/02/21 10:45:28;;;;;;;6.97;0.93;;;;;;;8.68;48.15;94613.66;5051440;28;20029;-65
2022/02/21 10:48:11;;;;;;;0.98;0.40;;;;;;;8.53;48.01;94620.13;5050917;28;20033;-64
2022/02/21 10:50:55;;;;;;;4.93;1.02;;;;;;;8.98;45.48;94596.94;5049960;28;20025;-65
2022/02/21 10:53:23;;;;;;;3.22;0.95;;;;;;;9.23;44.77;94590.16;5051788;28;20083;-66
2022/02/21 10:55:53;;;;;;;1.95;0.65;;;;;;;8.32;48.25;94647.09;5050578;28;20485;-64
2022/02/21 10:58:27;;;;;;;3.25;0.60;;;;;;;7.76;48.79;94640.38;5049595;28;20506;-64
2022/02/21 11:00:56;;;;;;;3.70;1.00;;;;;;;8.69;47.23;94584.16;5050654;28;20036;-64
2022/02/21 11:03:24;;;;;;;2.53;0.90;;;;;;;8.03;48.00;94612.25;5050661;28;20491;-64
2022/02/21 11:05:50;;;;;;;3.70;0.75;;;;;;;7.77;48.17;94617.34;5048989;28;20051;-64
2022/02/21 11:08:18;;;;;;;5.65;1.20;;;;;;;9.23;47.59;94590.16;5050510;28;20040;-65
2022/02/21 11:10:47;;;;;;;3.15;0.88;;;;;;;7.88;48.03;94564.94;5049150;28;20021;-64
2022/02/21 11:13:14;;;;;;;1.63;0.63;;;;;;;8.36;48.22;94596.13;5050569;28;20029;-64
2022/02/21 11:15:40;;;;;;;3.13;0.77;;;;;;;8.21;46.62;94529.19;5050393;28;20107;-64
2022/02/21 11:18:09;;;;;;;4.68;1.08;;;;;;;8.07;48.72;94600.00;5050478;28;20025;-64
2022/02/21 11:20:35;;;;;;;3.03;0.82;;;;;;;8.08;47.75;94596.25;5049890;28;20040;-65
2022/02/21 11:23:00;;;;;;;1.75;0.65;;;;;;;8.16;47.96;94584.94;5050231;28;20029;-65
2022/02/21 11:25:36;;;;;;;2.97;0.88;;;;;;;7.66;47.83;94571.78;5050218;28;20029;-63
2022/02/21 11:28:11;;;;;;;2.67;0.82;;;;;;;7.30;48.65;94622.03;5049128;28;20036;-63
2022/02/21 11:30:38;;;;;;;5.65;0.90;;;;;;;8.47;46.10;94600.91;5050013;28;20606;-63
2022/02/21 11:33:07;;;;;;;3.92;1.27;;;;;;;8.39;46.41;94614.88;5050469;28;20028;-63